HUAL Seoul — LADO6 — position and weather

sailwx.info

Track history (hours):
 
Tides and Currents Weather Stations Pressure Air Temp Water Temp Dewpoint Dewpoint Depression Visibility Wind Speed Wind Dir Waves Ship Positions

HUAL Seoul

Last reported at 2014-Dec-21 15:28 UTC. Time now 2014-Dec-23 03:01 UTC.
Position N 01°16' E 104°13'.

Type: Cargo ship. MMSI: 257496000.

Date/timePositionNaut miles runAvg speedWind from/ knotsBaromVisibWave heightAir tempDewpointWater temp
2014-Dec-21 15:28N 01°16' E 104°13'1415.5
2014-Dec-21 14:33N 01°14' E 103°59'1111.3
2014-Dec-21 13:33N 01°12' E 103°48'6 4.1
2014-Dec-21 12:12N 01°17' E 103°45'0 0.0
2014-Dec-21 11:27N 01°17' E 103°45'0 0.0
2014-Dec-21 10:33N 01°17' E 103°45'0 0.0
2014-Dec-21 09:33N 01°17' E 103°45'0 0.0
2014-Dec-21 08:33N 01°17' E 103°45'0 0.0
2014-Dec-21 07:33N 01°17' E 103°45'0 0.0
2014-Dec-21 06:21N 01°17' E 103°45'0 0.0
2014-Dec-21 05:33N 01°17' E 103°45'0 0.0
2014-Dec-21 04:27N 01°17' E 103°45'0 0.0
2014-Dec-21 03:33N 01°17' E 103°45'0 0.0
2014-Dec-21 02:24N 01°17' E 103°45'0 0.0
2014-Dec-21 01:27N 01°17' E 103°45'0 0.0
2014-Dec-21 00:04N 01°17' E 103°45'1 1.1
2014-Dec-20 23:33N 01°17' E 103°45'5 4.7
2014-Dec-20 22:33N 01°13' E 103°42'71 9.9
2014-Dec-20 15:23N 01°43' E 102°37'1113.1
2014-Dec-20 14:33N 01°48' E 102°27'2813.0
2014-Dec-20 12:25N 02°03' E 102°04'  
Track history (hours):
 
Tides and Currents Weather Stations Pressure Air Temp Water Temp Dewpoint Dewpoint Depression Visibility Wind Speed Wind Dir Waves Ship Positions

HUAL Seoul

Last reported at 2014-Dec-21 15:28 UTC. Time now 2014-Dec-23 03:01 UTC.
Position N 01°16' E 104°13'.

Type: Cargo ship. MMSI: 257496000.

Date/timePositionNaut miles runAvg speedWind from/ knotsBaromVisibWave heightAir tempDewpointWater temp
2014-Dec-21 15:28N 01°16' E 104°13'1415.5
2014-Dec-21 14:33N 01°14' E 103°59'1111.3
2014-Dec-21 13:33N 01°12' E 103°48'6 4.1
2014-Dec-21 12:12N 01°17' E 103°45'0 0.0
2014-Dec-21 11:27N 01°17' E 103°45'0 0.0
2014-Dec-21 10:33N 01°17' E 103°45'0 0.0
2014-Dec-21 09:33N 01°17' E 103°45'0 0.0
2014-Dec-21 08:33N 01°17' E 103°45'0 0.0
2014-Dec-21 07:33N 01°17' E 103°45'0 0.0
2014-Dec-21 06:21N 01°17' E 103°45'0 0.0
2014-Dec-21 05:33N 01°17' E 103°45'0 0.0
2014-Dec-21 04:27N 01°17' E 103°45'0 0.0
2014-Dec-21 03:33N 01°17' E 103°45'0 0.0
2014-Dec-21 02:24N 01°17' E 103°45'0 0.0
2014-Dec-21 01:27N 01°17' E 103°45'0 0.0
2014-Dec-21 00:04N 01°17' E 103°45'1 1.1
2014-Dec-20 23:33N 01°17' E 103°45'5 4.7
2014-Dec-20 22:33N 01°13' E 103°42'71 9.9
2014-Dec-20 15:23N 01°43' E 102°37'1113.1
2014-Dec-20 14:33N 01°48' E 102°27'2813.0
2014-Dec-20 12:25N 02°03' E 102°04'  

Dump ship's entire track history